sensor_id;sensor_type;location;lat;lon;timestamp;temperature;humidity
6293;DHT22;3179;54.350;10.102;2022-11-25T00:02:16;8.50;99.90
6293;DHT22;3179;54.350;10.102;2022-11-25T00:04:43;8.40;99.90
6293;DHT22;3179;54.350;10.102;2022-11-25T00:07:09;8.40;99.90
6293;DHT22;3179;54.350;10.102;2022-11-25T00:09:37;8.40;99.90
6293;DHT22;3179;54.350;10.102;2022-11-25T00:12:04;8.40;99.90
6293;DHT22;3179;54.350;10.102;2022-11-25T00:14:31;8.40;99.90
6293;DHT22;3179;54.350;10.102;2022-11-25T00:16:59;8.40;99.90
6293;DHT22;3179;54.350;10.102;2022-11-25T00:19:26;8.30;99.90
6293;DHT22;3179;54.350;10.102;2022-11-25T00:21:52;8.30;99.90
6293;DHT22;3179;54.350;10.102;2022-11-25T00:24:19;8.40;99.90
6293;DHT22;3179;54.350;10.102;2022-11-25T00:26:47;8.30;99.90
6293;DHT22;3179;54.350;10.102;2022-11-25T00:29:14;8.40;99.90
6293;DHT22;3179;54.350;10.102;2022-11-25T00:31:41;8.40;99.90
6293;DHT22;3179;54.350;10.102;2022-11-25T00:34:11;8.40;99.90
6293;DHT22;3179;54.350;10.102;2022-11-25T00:36:38;8.30;99.90
6293;DHT22;3179;54.350;10.102;2022-11-25T00:39:06;8.40;99.90
6293;DHT22;3179;54.350;10.102;2022-11-25T00:41:35;8.40;99.90
6293;DHT22;3179;54.350;10.102;2022-11-25T00:44:21;8.40;99.90
6293;DHT22;3179;54.350;10.102;2022-11-25T00:47:06;8.40;99.90
6293;DHT22;3179;54.350;10.102;2022-11-25T00:49:33;8.40;99.90
6293;DHT22;3179;54.350;10.102;2022-11-25T00:52:00;8.30;99.90
6293;DHT22;3179;54.350;10.102;2022-11-25T00:54:27;8.40;99.90
6293;DHT22;3179;54.350;10.102;2022-11-25T00:56:53;8.30;99.90
6293;DHT22;3179;54.350;10.102;2022-11-25T00:59:22;8.30;99.90
6293;DHT22;3179;54.350;10.102;2022-11-25T01:01:49;8.30;99.90
6293;DHT22;3179;54.350;10.102;2022-11-25T01:04:16;8.30;99.90
6293;DHT22;3179;54.350;10.102;2022-11-25T01:06:42;8.30;99.90
6293;DHT22;3179;54.350;10.102;2022-11-25T01:09:11;8.30;99.90
6293;DHT22;3179;54.350;10.102;2022-11-25T01:11:38;8.30;99.90
6293;DHT22;3179;54.350;10.102;2022-11-25T01:14:05;8.30;99.90
6293;DHT22;3179;54.350;10.102;2022-11-25T01:16:34;8.30;99.90
6293;DHT22;3179;54.350;10.102;2022-11-25T01:19:02;8.30;99.90
6293;DHT22;3179;54.350;10.102;2022-11-25T01:21:30;8.30;99.90
6293;DHT22;3179;54.350;10.102;2022-11-25T01:23:58;8.30;99.90
6293;DHT22;3179;54.350;10.102;2022-11-25T01:26:26;8.30;99.90
6293;DHT22;3179;54.350;10.102;2022-11-25T01:28:56;8.30;99.90
6293;DHT22;3179;54.350;10.102;2022-11-25T01:31:25;8.30;99.90
6293;DHT22;3179;54.350;10.102;2022-11-25T01:33:55;8.30;99.90
6293;DHT22;3179;54.350;10.102;2022-11-25T01:36:22;8.30;99.90
6293;DHT22;3179;54.350;10.102;2022-11-25T01:38:50;8.30;99.90
6293;DHT22;3179;54.350;10.102;2022-11-25T01:41:17;8.30;99.90
6293;DHT22;3179;54.350;10.102;2022-11-25T01:44:03;8.30;99.90
6293;DHT22;3179;54.350;10.102;2022-11-25T01:49:21;8.30;99.90
6293;DHT22;3179;54.350;10.102;2022-11-25T01:51:52;8.30;99.90
6293;DHT22;3179;54.350;10.102;2022-11-25T01:54:23;8.30;99.90
6293;DHT22;3179;54.350;10.102;2022-11-25T01:56:56;8.20;99.90
6293;DHT22;3179;54.350;10.102;2022-11-25T01:59:24;8.20;99.90
6293;DHT22;3179;54.350;10.102;2022-11-25T02:01:52;8.20;99.90
6293;DHT22;3179;54.350;10.102;2022-11-25T02:04:22;8.20;99.90
6293;DHT22;3179;54.350;10.102;2022-11-25T02:06:53;8.30;99.90
6293;DHT22;3179;54.350;10.102;2022-11-25T02:09:22;8.20;99.90
6293;DHT22;3179;54.350;10.102;2022-11-25T02:11:50;8.20;99.90
6293;DHT22;3179;54.350;10.102;2022-11-25T02:14:18;8.20;99.90
6293;DHT22;3179;54.350;10.102;2022-11-25T02:16:46;8.20;99.90
6293;DHT22;3179;54.350;10.102;2022-11-25T02:19:19;8.20;99.90
6293;DHT22;3179;54.350;10.102;2022-11-25T02:21:53;8.20;99.90
6293;DHT22;3179;54.350;10.102;2022-11-25T02:24:28;8.30;99.90
6293;DHT22;3179;54.350;10.102;2022-11-25T02:26:58;8.20;99.90
6293;DHT22;3179;54.350;10.102;2022-11-25T02:29:26;8.20;99.90
6293;DHT22;3179;54.350;10.102;2022-11-25T02:31:53;8.20;99.90
6293;DHT22;3179;54.350;10.102;2022-11-25T02:34:20;8.20;99.90
6293;DHT22;3179;54.350;10.102;2022-11-25T02:36:47;8.20;99.90
6293;DHT22;3179;54.350;10.102;2022-11-25T02:39:15;8.20;99.90
6293;DHT22;3179;54.350;10.102;2022-11-25T02:41:46;8.20;99.90
6293;DHT22;3179;54.350;10.102;2022-11-25T02:44:16;8.20;99.90
6293;DHT22;3179;54.350;10.102;2022-11-25T02:46:43;8.20;99.90
6293;DHT22;3179;54.350;10.102;2022-11-25T02:49:10;8.20;99.90
6293;DHT22;3179;54.350;10.102;2022-11-25T02:51:38;8.30;99.90
6293;DHT22;3179;54.350;10.102;2022-11-25T02:54:05;8.20;99.90
6293;DHT22;3179;54.350;10.102;2022-11-25T02:56:34;8.20;99.90
6293;DHT22;3179;54.350;10.102;2022-11-25T02:59:02;8.20;99.90
6293;DHT22;3179;54.350;10.102;2022-11-25T03:01:31;8.20;99.90
6293;DHT22;3179;54.350;10.102;2022-11-25T03:03:59;8.20;99.90
6293;DHT22;3179;54.350;10.102;2022-11-25T03:06:26;8.20;99.90
6293;DHT22;3179;54.350;10.102;2022-11-25T03:08:53;8.20;99.90
6293;DHT22;3179;54.350;10.102;2022-11-25T03:11:20;8.20;99.90
6293;DHT22;3179;54.350;10.102;2022-11-25T03:14:07;8.20;99.90
6293;DHT22;3179;54.350;10.102;2022-11-25T03:16:35;8.20;99.90
6293;DHT22;3179;54.350;10.102;2022-11-25T03:19:02;8.20;99.90
6293;DHT22;3179;54.350;10.102;2022-11-25T03:21:28;8.10;99.90
6293;DHT22;3179;54.350;10.102;2022-11-25T03:23:55;8.20;99.90
6293;DHT22;3179;54.350;10.102;2022-11-25T03:26:22;8.10;99.90
6293;DHT22;3179;54.350;10.102;2022-11-25T03:28:50;8.20;99.90
6293;DHT22;3179;54.350;10.102;2022-11-25T03:31:17;8.10;99.90
6293;DHT22;3179;54.350;10.102;2022-11-25T03:33:45;8.10;99.90
6293;DHT22;3179;54.350;10.102;2022-11-25T03:36:12;8.10;99.90
6293;DHT22;3179;54.350;10.102;2022-11-25T03:38:38;8.10;99.90
6293;DHT22;3179;54.350;10.102;2022-11-25T03:41:05;8.10;99.90
6293;DHT22;3179;54.350;10.102;2022-11-25T03:43:32;8.10;99.90
6293;DHT22;3179;54.350;10.102;2022-11-25T03:46:00;8.10;99.90
6293;DHT22;3179;54.350;10.102;2022-11-25T03:48:26;8.10;99.90
6293;DHT22;3179;54.350;10.102;2022-11-25T03:50:54;8.10;99.90
6293;DHT22;3179;54.350;10.102;2022-11-25T03:53:21;8.10;99.90
6293;DHT22;3179;54.350;10.102;2022-11-25T03:55:48;8.10;99.90
6293;DHT22;3179;54.350;10.102;2022-11-25T03:58:15;8.10;99.90
6293;DHT22;3179;54.350;10.102;2022-11-25T04:00:42;8.10;99.90
6293;DHT22;3179;54.350;10.102;2022-11-25T04:03:09;8.10;99.90
6293;DHT22;3179;54.350;10.102;2022-11-25T04:05:36;8.10;99.90
6293;DHT22;3179;54.350;10.102;2022-11-25T04:08:05;8.10;99.90
6293;DHT22;3179;54.350;10.102;2022-11-25T04:10:32;8.10;99.90
6293;DHT22;3179;54.350;10.102;2022-11-25T04:12:58;8.00;99.90
6293;DHT22;3179;54.350;10.102;2022-11-25T04:15:24;8.00;99.90
6293;DHT22;3179;54.350;10.102;2022-11-25T04:17:51;8.00;99.90
6293;DHT22;3179;54.350;10.102;2022-11-25T04:20:18;8.00;99.90
6293;DHT22;3179;54.350;10.102;2022-11-25T04:22:45;8.00;99.90
6293;DHT22;3179;54.350;10.102;2022-11-25T04:25:13;8.00;99.90
6293;DHT22;3179;54.350;10.102;2022-11-25T04:27:40;8.00;99.90
6293;DHT22;3179;54.350;10.102;2022-11-25T04:30:08;7.90;99.90
6293;DHT22;3179;54.350;10.102;2022-11-25T04:32:36;7.90;99.90
6293;DHT22;3179;54.350;10.102;2022-11-25T04:35:03;7.90;99.90
6293;DHT22;3179;54.350;10.102;2022-11-25T04:37:30;7.90;99.90
6293;DHT22;3179;54.350;10.102;2022-11-25T04:39:57;7.90;99.90
6293;DHT22;3179;54.350;10.102;2022-11-25T04:42:25;7.90;99.90
6293;DHT22;3179;54.350;10.102;2022-11-25T04:44:59;7.90;99.90
6293;DHT22;3179;54.350;10.102;2022-11-25T04:47:27;7.90;99.90
6293;DHT22;3179;54.350;10.102;2022-11-25T04:49:54;7.90;99.90
6293;DHT22;3179;54.350;10.102;2022-11-25T04:52:21;7.90;99.90
6293;DHT22;3179;54.350;10.102;2022-11-25T04:54:47;7.90;99.90
6293;DHT22;3179;54.350;10.102;2022-11-25T04:57:15;7.90;99.90
6293;DHT22;3179;54.350;10.102;2022-11-25T04:59:44;7.90;99.90
6293;DHT22;3179;54.350;10.102;2022-11-25T05:02:12;7.90;99.90
6293;DHT22;3179;54.350;10.102;2022-11-25T05:04:40;7.90;99.90
6293;DHT22;3179;54.350;10.102;2022-11-25T05:07:08;7.90;99.90
6293;DHT22;3179;54.350;10.102;2022-11-25T05:09:35;7.80;99.90
6293;DHT22;3179;54.350;10.102;2022-11-25T05:12:02;7.80;99.90
6293;DHT22;3179;54.350;10.102;2022-11-25T05:14:29;7.80;99.90
6293;DHT22;3179;54.350;10.102;2022-11-25T05:16:57;7.80;99.90
6293;DHT22;3179;54.350;10.102;2022-11-25T05:19:24;7.90;99.90
6293;DHT22;3179;54.350;10.102;2022-11-25T05:21:51;7.80;99.90
6293;DHT22;3179;54.350;10.102;2022-11-25T05:24:17;7.80;99.90
6293;DHT22;3179;54.350;10.102;2022-11-25T05:26:44;7.80;99.90
6293;DHT22;3179;54.350;10.102;2022-11-25T05:29:11;7.80;99.90
6293;DHT22;3179;54.350;10.102;2022-11-25T05:31:38;7.80;99.90
6293;DHT22;3179;54.350;10.102;2022-11-25T05:34:06;7.80;99.90
6293;DHT22;3179;54.350;10.102;2022-11-25T05:36:33;7.80;99.90
6293;DHT22;3179;54.350;10.102;2022-11-25T05:39:00;7.80;99.90
6293;DHT22;3179;54.350;10.102;2022-11-25T05:41:27;7.80;99.90
6293;DHT22;3179;54.350;10.102;2022-11-25T05:43:53;7.80;99.90
6293;DHT22;3179;54.350;10.102;2022-11-25T05:46:21;7.80;99.90
6293;DHT22;3179;54.350;10.102;2022-11-25T05:48:52;7.80;99.90
6293;DHT22;3179;54.350;10.102;2022-11-25T05:51:20;7.80;99.90
6293;DHT22;3179;54.350;10.102;2022-11-25T05:53:47;7.80;99.90
6293;DHT22;3179;54.350;10.102;2022-11-25T05:56:14;7.80;99.90
6293;DHT22;3179;54.350;10.102;2022-11-25T05:58:40;7.80;99.90
6293;DHT22;3179;54.350;10.102;2022-11-25T06:01:09;7.80;99.90
6293;DHT22;3179;54.350;10.102;2022-11-25T06:03:36;7.80;99.90
6293;DHT22;3179;54.350;10.102;2022-11-25T06:06:04;7.80;99.90
6293;DHT22;3179;54.350;10.102;2022-11-25T06:08:34;7.80;99.90
6293;DHT22;3179;54.350;10.102;2022-11-25T06:11:04;7.80;99.90
6293;DHT22;3179;54.350;10.102;2022-11-25T06:13:30;7.80;99.90
6293;DHT22;3179;54.350;10.102;2022-11-25T06:15:58;7.80;99.90
6293;DHT22;3179;54.350;10.102;2022-11-25T06:18:25;7.70;99.90
6293;DHT22;3179;54.350;10.102;2022-11-25T06:20:56;7.80;99.90
6293;DHT22;3179;54.350;10.102;2022-11-25T06:23:23;7.80;99.90
6293;DHT22;3179;54.350;10.102;2022-11-25T06:25:51;7.80;99.90
6293;DHT22;3179;54.350;10.102;2022-11-25T06:28:18;7.80;99.90
6293;DHT22;3179;54.350;10.102;2022-11-25T06:30:45;7.80;99.90
6293;DHT22;3179;54.350;10.102;2022-11-25T06:33:11;7.80;99.90
6293;DHT22;3179;54.350;10.102;2022-11-25T06:35:38;7.80;99.90
6293;DHT22;3179;54.350;10.102;2022-11-25T06:38:05;7.80;99.90
6293;DHT22;3179;54.350;10.102;2022-11-25T06:40:32;7.80;99.90
6293;DHT22;3179;54.350;10.102;2022-11-25T06:43:00;7.80;99.90
6293;DHT22;3179;54.350;10.102;2022-11-25T06:45:26;7.80;99.90
6293;DHT22;3179;54.350;10.102;2022-11-25T06:47:53;7.80;99.90
6293;DHT22;3179;54.350;10.102;2022-11-25T06:50:20;7.80;99.90
6293;DHT22;3179;54.350;10.102;2022-11-25T06:52:47;7.80;99.90
6293;DHT22;3179;54.350;10.102;2022-11-25T06:55:13;7.80;99.90
6293;DHT22;3179;54.350;10.102;2022-11-25T06:57:40;7.80;99.90
6293;DHT22;3179;54.350;10.102;2022-11-25T07:00:10;7.80;99.90
6293;DHT22;3179;54.350;10.102;2022-11-25T07:02:36;7.90;99.90
6293;DHT22;3179;54.350;10.102;2022-11-25T07:05:04;7.90;99.90
6293;DHT22;3179;54.350;10.102;2022-11-25T07:07:30;7.90;99.90
6293;DHT22;3179;54.350;10.102;2022-11-25T07:09:57;7.90;99.90
6293;DHT22;3179;54.350;10.102;2022-11-25T07:12:24;7.90;99.90
6293;DHT22;3179;54.350;10.102;2022-11-25T07:14:51;7.90;99.90
6293;DHT22;3179;54.350;10.102;2022-11-25T07:17:19;7.90;99.90
6293;DHT22;3179;54.350;10.102;2022-11-25T07:19:45;7.90;99.90
6293;DHT22;3179;54.350;10.102;2022-11-25T07:22:12;7.90;99.90
6293;DHT22;3179;54.350;10.102;2022-11-25T07:24:39;7.90;99.90
6293;DHT22;3179;54.350;10.102;2022-11-25T07:27:06;7.90;99.90
6293;DHT22;3179;54.350;10.102;2022-11-25T07:29:33;7.90;99.90
6293;DHT22;3179;54.350;10.102;2022-11-25T07:32:01;7.90;99.90
6293;DHT22;3179;54.350;10.102;2022-11-25T07:34:29;8.00;99.90
6293;DHT22;3179;54.350;10.102;2022-11-25T07:36:56;7.90;99.90
6293;DHT22;3179;54.350;10.102;2022-11-25T07:39:22;8.00;99.90
6293;DHT22;3179;54.350;10.102;2022-11-25T07:41:50;8.00;99.90
6293;DHT22;3179;54.350;10.102;2022-11-25T07:44:17;8.00;99.90
6293;DHT22;3179;54.350;10.102;2022-11-25T07:46:45;8.00;99.90
6293;DHT22;3179;54.350;10.102;2022-11-25T07:49:15;8.00;99.90
6293;DHT22;3179;54.350;10.102;2022-11-25T07:51:47;8.00;99.90
6293;DHT22;3179;54.350;10.102;2022-11-25T07:54:15;8.00;99.90
6293;DHT22;3179;54.350;10.102;2022-11-25T07:56:43;8.00;99.90
6293;DHT22;3179;54.350;10.102;2022-11-25T07:59:12;8.00;99.90
6293;DHT22;3179;54.350;10.102;2022-11-25T08:01:40;8.10;99.90
6293;DHT22;3179;54.350;10.102;2022-11-25T08:04:08;8.10;99.90
6293;DHT22;3179;54.350;10.102;2022-11-25T08:06:37;8.10;99.90
6293;DHT22;3179;54.350;10.102;2022-11-25T08:09:06;8.10;99.90
6293;DHT22;3179;54.350;10.102;2022-11-25T08:11:33;8.10;99.90
6293;DHT22;3179;54.350;10.102;2022-11-25T08:14:00;8.10;99.90
6293;DHT22;3179;54.350;10.102;2022-11-25T08:16:28;8.10;99.90
6293;DHT22;3179;54.350;10.102;2022-11-25T08:18:56;8.10;99.90
6293;DHT22;3179;54.350;10.102;2022-11-25T08:21:23;8.10;99.90
6293;DHT22;3179;54.350;10.102;2022-11-25T08:23:50;8.00;99.90
6293;DHT22;3179;54.350;10.102;2022-11-25T08:26:21;8.10;99.90
6293;DHT22;3179;54.350;10.102;2022-11-25T08:28:50;8.10;99.90
6293;DHT22;3179;54.350;10.102;2022-11-25T08:31:19;8.10;99.90
6293;DHT22;3179;54.350;10.102;2022-11-25T08:33:47;8.10;99.90
6293;DHT22;3179;54.350;10.102;2022-11-25T08:36:14;8.10;99.90
6293;DHT22;3179;54.350;10.102;2022-11-25T08:38:41;8.10;99.90
6293;DHT22;3179;54.350;10.102;2022-11-25T08:41:10;8.10;99.90
6293;DHT22;3179;54.350;10.102;2022-11-25T08:43:39;8.10;99.90
6293;DHT22;3179;54.350;10.102;2022-11-25T08:46:07;8.10;99.90
6293;DHT22;3179;54.350;10.102;2022-11-25T08:48:34;8.10;99.90
6293;DHT22;3179;54.350;10.102;2022-11-25T08:51:01;8.10;99.90
6293;DHT22;3179;54.350;10.102;2022-11-25T08:53:32;8.10;99.90
6293;DHT22;3179;54.350;10.102;2022-11-25T08:55:59;8.10;99.90
6293;DHT22;3179;54.350;10.102;2022-11-25T08:58:25;8.10;99.90
6293;DHT22;3179;54.350;10.102;2022-11-25T09:00:53;8.10;99.90
6293;DHT22;3179;54.350;10.102;2022-11-25T09:03:20;8.10;99.90
6293;DHT22;3179;54.350;10.102;2022-11-25T09:05:47;8.10;99.90
6293;DHT22;3179;54.350;10.102;2022-11-25T09:08:14;8.00;99.90
6293;DHT22;3179;54.350;10.102;2022-11-25T09:10:41;8.00;99.90
6293;DHT22;3179;54.350;10.102;2022-11-25T09:13:08;8.00;99.90
6293;DHT22;3179;54.350;10.102;2022-11-25T09:15:36;8.00;99.90
6293;DHT22;3179;54.350;10.102;2022-11-25T09:18:05;8.00;99.90
6293;DHT22;3179;54.350;10.102;2022-11-25T09:20:35;8.00;99.90
6293;DHT22;3179;54.350;10.102;2022-11-25T09:23:03;8.10;99.90
6293;DHT22;3179;54.350;10.102;2022-11-25T09:25:30;8.10;99.90
6293;DHT22;3179;54.350;10.102;2022-11-25T09:27:57;8.10;99.90
6293;DHT22;3179;54.350;10.102;2022-11-25T09:30:24;8.10;99.90
6293;DHT22;3179;54.350;10.102;2022-11-25T09:32:53;8.10;99.90
6293;DHT22;3179;54.350;10.102;2022-11-25T09:35:22;8.10;99.90
6293;DHT22;3179;54.350;10.102;2022-11-25T09:37:50;8.20;99.90
6293;DHT22;3179;54.350;10.102;2022-11-25T09:40:18;8.20;99.90
6293;DHT22;3179;54.350;10.102;2022-11-25T09:42:50;8.20;99.90
6293;DHT22;3179;54.350;10.102;2022-11-25T09:45:46;8.20;99.90
6293;DHT22;3179;54.350;10.102;2022-11-25T09:48:46;8.20;99.90
6293;DHT22;3179;54.350;10.102;2022-11-25T09:51:19;8.20;99.90
6293;DHT22;3179;54.350;10.102;2022-11-25T09:53:50;8.30;99.90
6293;DHT22;3179;54.350;10.102;2022-11-25T09:56:24;8.20;99.90
6293;DHT22;3179;54.350;10.102;2022-11-25T09:58:59;8.20;99.90
6293;DHT22;3179;54.350;10.102;2022-11-25T10:01:29;8.20;99.90
6293;DHT22;3179;54.350;10.102;2022-11-25T10:04:00;8.30;99.90
6293;DHT22;3179;54.350;10.102;2022-11-25T10:06:31;8.30;99.90
6293;DHT22;3179;54.350;10.102;2022-11-25T10:09:02;8.30;99.90
6293;DHT22;3179;54.350;10.102;2022-11-25T10:11:41;8.30;99.90
6293;DHT22;3179;54.350;10.102;2022-11-25T10:14:16;8.30;99.90
6293;DHT22;3179;54.350;10.102;2022-11-25T10:16:49;8.30;99.90
6293;DHT22;3179;54.350;10.102;2022-11-25T10:19:34;8.20;99.90
6293;DHT22;3179;54.350;10.102;2022-11-25T10:22:14;8.20;99.90
6293;DHT22;3179;54.350;10.102;2022-11-25T10:24:42;8.20;99.90
6293;DHT22;3179;54.350;10.102;2022-11-25T10:27:17;8.20;99.90
6293;DHT22;3179;54.350;10.102;2022-11-25T10:29:46;8.20;99.90
6293;DHT22;3179;54.350;10.102;2022-11-25T10:32:22;8.30;99.90
6293;DHT22;3179;54.350;10.102;2022-11-25T10:34:55;8.20;99.90
6293;DHT22;3179;54.350;10.102;2022-11-25T10:37:30;8.30;99.90
6293;DHT22;3179;54.350;10.102;2022-11-25T10:39:57;8.20;99.90
6293;DHT22;3179;54.350;10.102;2022-11-25T10:42:25;8.20;99.90
6293;DHT22;3179;54.350;10.102;2022-11-25T10:44:52;8.20;99.90
6293;DHT22;3179;54.350;10.102;2022-11-25T10:47:31;8.20;99.90
6293;DHT22;3179;54.350;10.102;2022-11-25T10:50:06;8.20;99.90
6293;DHT22;3179;54.350;10.102;2022-11-25T10:52:39;8.20;99.90
6293;DHT22;3179;54.350;10.102;2022-11-25T10:55:12;8.20;99.90
6293;DHT22;3179;54.350;10.102;2022-11-25T10:57:39;8.20;99.90
6293;DHT22;3179;54.350;10.102;2022-11-25T11:00:24;8.20;99.90
6293;DHT22;3179;54.350;10.102;2022-11-25T11:02:53;8.20;99.90
6293;DHT22;3179;54.350;10.102;2022-11-25T11:05:22;8.20;99.90
6293;DHT22;3179;54.350;10.102;2022-11-25T11:08:17;8.20;99.90
6293;DHT22;3179;54.350;10.102;2022-11-25T11:10:44;8.20;99.90
6293;DHT22;3179;54.350;10.102;2022-11-25T11:13:22;8.20;99.90
6293;DHT22;3179;54.350;10.102;2022-11-25T11:15:50;8.20;99.90
6293;DHT22;3179;54.350;10.102;2022-11-25T11:18:24;8.20;99.90
6293;DHT22;3179;54.350;10.102;2022-11-25T11:20:52;8.20;99.90
6293;DHT22;3179;54.350;10.102;2022-11-25T11:23:21;8.20;99.90
6293;DHT22;3179;54.350;10.102;2022-11-25T11:25:57;8.20;99.90
6293;DHT22;3179;54.350;10.102;2022-11-25T11:28:30;8.20;99.90
6293;DHT22;3179;54.350;10.102;2022-11-25T11:31:05;8.20;99.90
6293;DHT22;3179;54.350;10.102;2022-11-25T11:33:35;8.20;99.90
6293;DHT22;3179;54.350;10.102;2022-11-25T11:36:13;8.20;99.90
6293;DHT22;3179;54.350;10.102;2022-11-25T11:38:48;8.30;99.90
6293;DHT22;3179;54.350;10.102;2022-11-25T11:41:27;8.30;99.90
6293;DHT22;3179;54.350;10.102;2022-11-25T11:44:08;8.30;99.90
6293;DHT22;3179;54.350;10.102;2022-11-25T11:46:49;8.30;99.90
6293;DHT22;3179;54.350;10.102;2022-11-25T11:49:45;8.30;99.90
6293;DHT22;3179;54.350;10.102;2022-11-25T11:52:23;8.30;99.90
6293;DHT22;3179;54.350;10.102;2022-11-25T11:54:59;8.30;99.90
6293;DHT22;3179;54.350;10.102;2022-11-25T11:57:33;8.30;99.90
6293;DHT22;3179;54.350;10.102;2022-11-25T12:00:04;8.30;99.90
6293;DHT22;3179;54.350;10.102;2022-11-25T12:02:39;8.30;99.90
6293;DHT22;3179;54.350;10.102;2022-11-25T12:05:14;8.20;99.90
6293;DHT22;3179;54.350;10.102;2022-11-25T12:07:46;8.30;99.90
6293;DHT22;3179;54.350;10.102;2022-11-25T12:10:25;8.30;99.90
6293;DHT22;3179;54.350;10.102;2022-11-25T12:12:59;8.30;99.90
6293;DHT22;3179;54.350;10.102;2022-11-25T12:15:36;8.30;99.90
6293;DHT22;3179;54.350;10.102;2022-11-25T12:18:15;8.40;99.90
6293;DHT22;3179;54.350;10.102;2022-11-25T12:20:49;8.30;99.90
6293;DHT22;3179;54.350;10.102;2022-11-25T12:23:25;8.30;99.90
6293;DHT22;3179;54.350;10.102;2022-11-25T12:26:00;8.40;99.90
6293;DHT22;3179;54.350;10.102;2022-11-25T12:28:31;8.40;99.90
6293;DHT22;3179;54.350;10.102;2022-11-25T12:31:07;8.40;99.90
6293;DHT22;3179;54.350;10.102;2022-11-25T12:33:43;8.40;99.90
6293;DHT22;3179;54.350;10.102;2022-11-25T12:36:15;8.40;99.90
6293;DHT22;3179;54.350;10.102;2022-11-25T12:38:45;8.40;99.90
6293;DHT22;3179;54.350;10.102;2022-11-25T12:41:22;8.50;99.90
6293;DHT22;3179;54.350;10.102;2022-11-25T12:43:54;8.50;99.90
6293;DHT22;3179;54.350;10.102;2022-11-25T12:46:28;8.50;99.90
6293;DHT22;3179;54.350;10.102;2022-11-25T12:48:57;8.50;99.90
6293;DHT22;3179;54.350;10.102;2022-11-25T12:51:50;8.60;99.90
6293;DHT22;3179;54.350;10.102;2022-11-25T12:54:31;8.60;99.90
6293;DHT22;3179;54.350;10.102;2022-11-25T13:00:09;8.60;99.90
6293;DHT22;3179;54.350;10.102;2022-11-25T13:03:17;8.60;99.90
6293;DHT22;3179;54.350;10.102;2022-11-25T13:06:02;8.60;99.90
6293;DHT22;3179;54.350;10.102;2022-11-25T13:08:54;8.60;99.90
6293;DHT22;3179;54.350;10.102;2022-11-25T13:11:43;8.60;99.90
6293;DHT22;3179;54.350;10.102;2022-11-25T13:14:23;8.60;99.90
6293;DHT22;3179;54.350;10.102;2022-11-25T13:16:52;8.60;99.90
6293;DHT22;3179;54.350;10.102;2022-11-25T13:19:20;8.60;99.90
6293;DHT22;3179;54.350;10.102;2022-11-25T13:21:57;8.70;99.90
6293;DHT22;3179;54.350;10.102;2022-11-25T13:24:27;8.70;99.90
6293;DHT22;3179;54.350;10.102;2022-11-25T13:26:55;8.70;99.90
6293;DHT22;3179;54.350;10.102;2022-11-25T13:32:32;8.70;99.90
6293;DHT22;3179;54.350;10.102;2022-11-25T13:35:29;8.70;99.90
6293;DHT22;3179;54.350;10.102;2022-11-25T13:37:56;8.80;99.90
6293;DHT22;3179;54.350;10.102;2022-11-25T13:40:33;8.80;99.90
6293;DHT22;3179;54.350;10.102;2022-11-25T13:43:01;8.80;99.90
6293;DHT22;3179;54.350;10.102;2022-11-25T13:45:30;8.80;99.90
6293;DHT22;3179;54.350;10.102;2022-11-25T13:48:06;8.80;99.90
6293;DHT22;3179;54.350;10.102;2022-11-25T13:50:38;8.80;99.90
6293;DHT22;3179;54.350;10.102;2022-11-25T13:53:17;8.80;99.90
6293;DHT22;3179;54.350;10.102;2022-11-25T13:55:44;8.80;99.90
6293;DHT22;3179;54.350;10.102;2022-11-25T13:58:19;8.80;99.90
6293;DHT22;3179;54.350;10.102;2022-11-25T14:01:10;8.80;99.90
6293;DHT22;3179;54.350;10.102;2022-11-25T14:03:52;8.80;99.90
6293;DHT22;3179;54.350;10.102;2022-11-25T14:06:38;8.80;99.90
6293;DHT22;3179;54.350;10.102;2022-11-25T14:09:15;8.80;99.90
6293;DHT22;3179;54.350;10.102;2022-11-25T14:12:04;8.80;99.90
6293;DHT22;3179;54.350;10.102;2022-11-25T14:17:56;8.80;99.90
6293;DHT22;3179;54.350;10.102;2022-11-25T14:20:37;8.80;99.90
6293;DHT22;3179;54.350;10.102;2022-11-25T14:23:19;8.80;99.90
6293;DHT22;3179;54.350;10.102;2022-11-25T14:25:52;8.80;99.90
6293;DHT22;3179;54.350;10.102;2022-11-25T14:28:31;8.80;99.90
6293;DHT22;3179;54.350;10.102;2022-11-25T14:31:04;8.80;99.90
6293;DHT22;3179;54.350;10.102;2022-11-25T14:33:35;8.80;99.90
6293;DHT22;3179;54.350;10.102;2022-11-25T14:36:09;8.80;99.90
6293;DHT22;3179;54.350;10.102;2022-11-25T14:38:42;8.80;99.90
6293;DHT22;3179;54.350;10.102;2022-11-25T14:41:16;8.80;99.90
6293;DHT22;3179;54.350;10.102;2022-11-25T14:43:47;8.80;99.90
6293;DHT22;3179;54.350;10.102;2022-11-25T14:46:19;8.80;99.90
6293;DHT22;3179;54.350;10.102;2022-11-25T14:48:53;8.80;99.90
6293;DHT22;3179;54.350;10.102;2022-11-25T14:51:24;8.90;99.90
6293;DHT22;3179;54.350;10.102;2022-11-25T14:53:51;8.90;99.90
6293;DHT22;3179;54.350;10.102;2022-11-25T14:56:24;8.90;99.90
6293;DHT22;3179;54.350;10.102;2022-11-25T14:58:53;8.90;99.90
6293;DHT22;3179;54.350;10.102;2022-11-25T15:01:22;8.80;99.90
6293;DHT22;3179;54.350;10.102;2022-11-25T15:03:50;8.90;99.90
6293;DHT22;3179;54.350;10.102;2022-11-25T15:06:17;8.90;99.90
6293;DHT22;3179;54.350;10.102;2022-11-25T15:08:54;8.90;99.90
6293;DHT22;3179;54.350;10.102;2022-11-25T15:11:24;8.90;99.90
6293;DHT22;3179;54.350;10.102;2022-11-25T15:13:56;8.90;99.90
6293;DHT22;3179;54.350;10.102;2022-11-25T15:16:33;8.80;99.90
6293;DHT22;3179;54.350;10.102;2022-11-25T15:19:06;8.80;99.90
6293;DHT22;3179;54.350;10.102;2022-11-25T15:21:41;8.90;99.90
6293;DHT22;3179;54.350;10.102;2022-11-25T15:24:22;8.80;99.90
6293;DHT22;3179;54.350;10.102;2022-11-25T15:26:51;8.90;99.90
6293;DHT22;3179;54.350;10.102;2022-11-25T15:29:19;8.80;99.90
6293;DHT22;3179;54.350;10.102;2022-11-25T15:31:48;8.80;99.90
6293;DHT22;3179;54.350;10.102;2022-11-25T15:34:17;8.80;99.90
6293;DHT22;3179;54.350;10.102;2022-11-25T15:36:45;8.90;99.90
6293;DHT22;3179;54.350;10.102;2022-11-25T15:39:14;8.90;99.90
6293;DHT22;3179;54.350;10.102;2022-11-25T15:41:43;8.90;99.90
6293;DHT22;3179;54.350;10.102;2022-11-25T15:44:20;8.90;99.90
6293;DHT22;3179;54.350;10.102;2022-11-25T15:46:54;8.90;99.90
6293;DHT22;3179;54.350;10.102;2022-11-25T15:49:23;8.90;99.90
6293;DHT22;3179;54.350;10.102;2022-11-25T15:51:52;8.90;99.90
6293;DHT22;3179;54.350;10.102;2022-11-25T15:54:22;8.80;99.90
6293;DHT22;3179;54.350;10.102;2022-11-25T15:56:53;8.90;99.90
6293;DHT22;3179;54.350;10.102;2022-11-25T15:59:39;8.80;99.90
6293;DHT22;3179;54.350;10.102;2022-11-25T16:02:29;8.90;99.90
6293;DHT22;3179;54.350;10.102;2022-11-25T16:05:14;8.90;99.90
6293;DHT22;3179;54.350;10.102;2022-11-25T16:07:59;8.90;99.90
6293;DHT22;3179;54.350;10.102;2022-11-25T16:10:28;8.90;99.90
6293;DHT22;3179;54.350;10.102;2022-11-25T16:13:32;8.90;99.90
6293;DHT22;3179;54.350;10.102;2022-11-25T16:16:19;8.90;99.90
6293;DHT22;3179;54.350;10.102;2022-11-25T16:21:53;8.90;99.90
6293;DHT22;3179;54.350;10.102;2022-11-25T16:24:33;8.90;99.90
6293;DHT22;3179;54.350;10.102;2022-11-25T16:27:03;8.90;99.90
6293;DHT22;3179;54.350;10.102;2022-11-25T16:29:33;8.90;99.90
6293;DHT22;3179;54.350;10.102;2022-11-25T16:32:11;8.90;99.90
6293;DHT22;3179;54.350;10.102;2022-11-25T16:34:38;8.90;99.90
6293;DHT22;3179;54.350;10.102;2022-11-25T16:37:05;8.90;99.90
6293;DHT22;3179;54.350;10.102;2022-11-25T16:39:32;9.00;99.90
6293;DHT22;3179;54.350;10.102;2022-11-25T16:42:00;9.00;99.90